Terminal Aerodrome Forecast
Issued by NWS

Home | Current Version | Previous Version | Text Only | Print | Product List | Glossary On
Versions: 1 2 3 4 5 6 7 8 9 10 11 12 13 14 15 16 17 18 19 20 21 22 23 24 25 26 27 28 29 30 31 32 33 34 35
000
FTUS41 KALY 261100
TAFPSF
TAF
KPSF 261138Z 2612/2712 VRB03KT P6SM SCT250
      TEMPO 2612/2613 5SM BR
     FM261600 24008KT P6SM FEW040 SCT250
     FM262100 24007KT P6SM SCT040 SCT120 BKN250
     FM270300 VRB03KT P6SM OVC120
     FM270900 VRB03KT 3SM SHRA OVC025=

USA.gov is the U.S. government's official web portal to all federal, state and local government web resources and services.